Terminal Aerodrome Forecast
Issued by NWS Atlanta, GA

Home | Current Version | Previous Version | Text Only | Print | Product List | Glossary On
Versions: 1 2 3 4 5 6 7 8 9 10 11 12 13 14 15 16 17 18 19 20 21 22 23 24 25 26 27 28 29 30 31 32 33 34 35 36 37 38
000
FTUS42 KFFC 311359 AAA
TAFATL
TAF AMD
KATL 311359Z 3114/0118 01004KT P6SM BKN180
     FM311800 20004KT P6SM BKN200
     FM010000 15003KT P6SM OVC150
     FM011000 14003KT P6SM SCT025 OVC150
     FM011300 14008KT P6SM OVC025=

USA.gov is the U.S. government's official web portal to all federal, state and local government web resources and services.